Time,TemperatureF,DewpointF,PressureIn,WindDirection,WindDirectionDegrees,WindSpeedMPH,WindSpeedGustMPH,Humidity,HourlyPrecipIn,Conditions,Clouds,dailyrainin,SoftwareType,DateUTC
2013-02-28 00:02:00,25.9,25.1,0.00,NNW,337,9.6,-999.0,97,0.00,,,-99.99,,2013-02-28 09:02:00,
2013-02-28 00:07:00,25.8,25.0,0.00,NNW,337,9.2,-999.0,97,0.00,,,-99.99,,2013-02-28 09:07:00,
2013-02-28 00:12:00,25.9,25.1,0.00,NNW,344,9.7,-999.0,96,0.00,,,-99.99,,2013-02-28 09:12:00,
2013-02-28 00:37:00,25.6,24.7,0.00,NNW,343,10.3,-999.0,96,0.00,,,-99.99,,2013-02-28 09:37:00,
2013-02-28 00:43:00,25.6,24.7,0.00,NNW,345,9.9,-999.0,96,0.00,,,-99.99,,2013-02-28 09:43:00,
2013-02-28 00:48:00,25.5,24.4,0.00,NNW,345,11.2,-999.0,95,0.00,,,-99.99,,2013-02-28 09:48:00,
2013-02-28 00:53:00,25.4,24.1,0.00,North,354,11.7,-999.0,94,0.00,,,-99.99,,2013-02-28 09:53:00,
2013-02-28 00:58:00,25.2,23.7,0.00,NNW,343,10.6,-999.0,94,0.00,,,-99.99,,2013-02-28 09:58:00,
2013-02-28 01:03:00,25.5,24.0,0.00,NNW,345,12.2,-999.0,94,0.00,,,-99.99,,2013-02-28 10:03:00,
2013-02-28 01:08:00,25.4,23.6,0.00,NNW,342,11.4,-999.0,93,0.00,,,-99.99,,2013-02-28 10:08:00,
2013-02-28 01:14:00,25.3,23.7,0.00,NNW,342,9.2,-999.0,93,0.00,,,-99.99,,2013-02-28 10:14:00,
2013-02-28 01:19:00,25.3,23.7,0.00,NNW,341,9.1,-999.0,93,0.00,,,-99.99,,2013-02-28 10:19:00,
2013-02-28 01:24:00,25.5,23.8,0.00,NNW,339,10.9,-999.0,93,0.00,,,-99.99,,2013-02-28 10:24:00,
2013-02-28 01:29:00,25.3,23.5,0.00,North,353,9.2,-999.0,93,0.00,,,-99.99,,2013-02-28 10:29:00,
2013-02-28 01:34:00,25.1,23.0,0.00,North,354,10.3,-999.0,91,0.00,,,-99.99,,2013-02-28 10:34:00,
2013-02-28 01:40:00,25.2,23.2,0.00,North,354,8.9,-999.0,92,0.00,,,-99.99,,2013-02-28 10:40:00,
2013-02-28 01:45:00,25.2,23.1,0.00,North,6,8.9,-999.0,91,0.00,,,-99.99,,2013-02-28 10:45:00,
2013-02-28 01:50:00,25.1,23.1,0.00,NNE,12,9.5,-999.0,91,0.00,,,-99.99,,2013-02-28 10:50:00,
2013-02-28 01:55:00,25.2,22.8,0.00,NNE,27,10.1,-999.0,90,0.00,,,-99.99,,2013-02-28 10:55:00,
2013-02-28 02:00:00,25.1,22.7,0.00,NNE,25,11.3,-999.0,90,0.00,,,-99.99,,2013-02-28 11:00:00,
2013-02-28 02:05:00,25.2,22.1,0.00,North,6,10.3,-999.0,87,0.00,,,-99.99,,2013-02-28 11:05:00,
2013-02-28 02:10:00,25.0,22.5,0.00,NNW,345,7.8,-999.0,90,0.00,,,-99.99,,2013-02-28 11:10:00,
2013-02-28 02:15:00,25.0,22.9,0.00,NW,323,7.2,-999.0,91,0.00,,,-99.99,,2013-02-28 11:15:00,
2013-02-28 02:20:00,25.2,23.0,0.00,NW,326,7.1,-999.0,91,0.00,,,-99.99,,2013-02-28 11:20:00,
2013-02-28 02:25:00,25.2,22.9,0.00,NNW,339,7.8,-999.0,91,0.00,,,-99.99,,2013-02-28 11:25:00,
2013-02-28 02:30:00,25.3,23.0,0.00,NNW,334,7.4,-999.0,91,0.00,,,-99.99,,2013-02-28 11:30:00,
2013-02-28 02:35:00,25.1,22.9,0.00,NNW,339,5.6,-999.0,91,0.00,,,-99.99,,2013-02-28 11:35:00,
2013-02-28 02:40:00,25.2,22.9,0.00,North,354,4.9,-999.0,90,0.00,,,-99.99,,2013-02-28 11:40:00,
2013-02-28 02:45:00,25.0,21.8,0.00,North,351,6.4,-999.0,87,0.00,,,-99.99,,2013-02-28 11:45:00,
2013-02-28 02:50:00,25.1,21.6,0.00,NW,325,7.3,-999.0,86,0.00,,,-99.99,,2013-02-28 11:50:00,
2013-02-28 02:55:00,25.1,21.6,0.00,NNW,327,5.8,-999.0,86,0.00,,,-99.99,,2013-02-28 11:55:00,
2013-02-28 03:00:00,25.0,21.9,0.00,NW,307,5.0,-999.0,87,0.00,,,-99.99,,2013-02-28 12:00:00,
2013-02-28 03:05:00,25.0,21.9,0.00,NW,319,6.0,-999.0,88,0.00,,,-99.99,,2013-02-28 12:05:00,
2013-02-28 03:10:00,24.6,22.3,0.00,NW,326,1.8,-999.0,90,0.00,,,-99.99,,2013-02-28 12:10:00,
2013-02-28 03:15:00,24.5,22.9,0.00,WNW,293,1.4,-999.0,93,0.00,,,-99.99,,2013-02-28 12:15:00,
2013-02-28 03:20:00,25.2,22.9,0.00,WNW,297,4.0,-999.0,90,0.00,,,-99.99,,2013-02-28 12:20:00,
2013-02-28 03:25:00,25.0,23.5,0.00,SSE,157,0.7,-999.0,94,0.00,,,-99.99,,2013-02-28 12:25:00,
2013-02-28 03:30:00,25.1,23.3,0.00,NE,34,1.4,-999.0,92,0.00,,,-99.99,,2013-02-28 12:30:00,
2013-02-28 03:35:00,25.3,23.0,0.00,NNW,332,10.5,-999.0,91,0.00,,,-99.99,,2013-02-28 12:35:00,
2013-02-28 03:40:00,25.2,22.9,0.00,NW,321,9.1,-999.0,90,0.00,,,-99.99,,2013-02-28 12:40:00,
2013-02-28 03:45:00,25.3,23.3,0.00,NNW,329,8.9,-999.0,92,0.00,,,-99.99,,2013-02-28 12:45:00,
2013-02-28 03:50:00,25.1,23.0,0.00,NNW,333,9.0,-999.0,91,0.00,,,-99.99,,2013-02-28 12:50:00,
2013-02-28 03:55:00,25.0,22.9,0.00,NNW,339,8.8,-999.0,91,0.00,,,-99.99,,2013-02-28 12:55:00,
2013-02-28 04:00:00,24.9,22.3,0.00,NNW,335,8.6,-999.0,90,0.00,,,-99.99,,2013-02-28 13:00:00,
2013-02-28 04:05:00,25.0,22.4,0.00,NNW,329,9.0,-999.0,89,0.00,,,-99.99,,2013-02-28 13:05:00,
2013-02-28 04:10:00,24.9,22.2,0.00,NNW,327,9.4,-999.0,89,0.00,,,-99.99,,2013-02-28 13:10:00,
2013-02-28 04:15:00,24.8,22.3,0.00,NNW,335,6.8,-999.0,90,0.00,,,-99.99,,2013-02-28 13:15:00,
2013-02-28 04:20:00,24.8,22.1,0.00,NNW,336,9.9,-999.0,89,0.00,,,-99.99,,2013-02-28 13:20:00,
2013-02-28 04:25:00,25.0,22.3,0.00,NW,325,10.4,-999.0,89,0.00,,,-99.99,,2013-02-28 13:25:00,
2013-02-28 04:30:00,25.0,22.2,0.00,NNW,334,9.3,-999.0,89,0.00,,,-99.99,,2013-02-28 13:30:00,
2013-02-28 04:35:00,24.7,21.9,0.00,NNW,347,7.0,-999.0,89,0.00,,,-99.99,,2013-02-28 13:35:00,
2013-02-28 04:40:00,24.8,21.8,0.00,NNW,346,8.1,-999.0,88,0.00,,,-99.99,,2013-02-28 13:40:00,
2013-02-28 04:45:00,24.7,21.6,0.00,NNW,348,8.0,-999.0,87,0.00,,,-99.99,,2013-02-28 13:45:00,
2013-02-28 04:50:00,24.6,21.6,0.00,North,351,7.3,-999.0,88,0.00,,,-99.99,,2013-02-28 13:50:00,
2013-02-28 04:55:00,24.7,21.3,0.00,North,353,8.1,-999.0,86,0.00,,,-99.99,,2013-02-28 13:55:00,
2013-02-28 05:00:00,24.8,21.7,0.00,NNW,346,8.5,-999.0,87,0.00,,,-99.99,,2013-02-28 14:00:00,
2013-02-28 05:05:00,24.6,21.2,0.00,NNW,336,8.9,-999.0,86,0.00,,,-99.99,,2013-02-28 14:05:00,
2013-02-28 05:10:00,24.7,21.7,0.00,NW,322,8.1,-999.0,88,0.00,,,-99.99,,2013-02-28 14:10:00,
2013-02-28 05:15:00,24.5,21.6,0.00,NNW,331,8.2,-999.0,88,0.00,,,-99.99,,2013-02-28 14:15:00,
2013-02-28 05:20:00,24.7,21.5,0.00,NNW,331,9.7,-999.0,87,0.00,,,-99.99,,2013-02-28 14:20:00,
2013-02-28 05:25:00,24.7,22.0,0.00,NW,321,8.9,-999.0,89,0.00,,,-99.99,,2013-02-28 14:25:00,
2013-02-28 05:30:00,24.7,21.9,0.00,NNW,332,11.5,-999.0,89,0.00,,,-99.99,,2013-02-28 14:30:00,
2013-02-28 05:35:00,24.6,21.7,0.00,NNW,328,10.7,-999.0,88,0.00,,,-99.99,,2013-02-28 14:35:00,
2013-02-28 05:40:00,24.6,20.5,0.00,NNW,343,11.8,-999.0,84,0.00,,,-99.99,,2013-02-28 14:40:00,
2013-02-28 05:45:00,24.5,20.8,0.00,NNW,337,9.2,-999.0,85,0.00,,,-99.99,,2013-02-28 14:45:00,
2013-02-28 05:50:00,24.4,21.1,0.00,NNW,338,8.5,-999.0,87,0.00,,,-99.99,,2013-02-28 14:50:00,
2013-02-28 05:55:00,24.5,21.6,0.00,NNW,338,7.2,-999.0,88,0.00,,,-99.99,,2013-02-28 14:55:00,
2013-02-28 06:00:00,24.5,20.9,0.00,NNW,346,8.2,-999.0,85,0.00,,,-99.99,,2013-02-28 15:00:00,
2013-02-28 06:05:00,24.5,20.0,0.00,NNW,341,8.7,-999.0,82,0.00,,,-99.99,,2013-02-28 15:05:00,
2013-02-28 06:10:00,24.4,19.9,0.00,NNW,340,7.1,-999.0,83,0.00,,,-99.99,,2013-02-28 15:10:00,
2013-02-28 06:15:00,24.4,19.8,0.00,North,349,7.2,-999.0,82,0.00,,,-99.99,,2013-02-28 15:15:00,
2013-02-28 06:20:00,24.3,20.4,0.00,NNE,12,5.6,-999.0,84,0.00,,,-99.99,,2013-02-28 15:20:00,
2013-02-28 06:25:00,24.1,20.0,0.00,North,7,5.3,-999.0,84,0.00,,,-99.99,,2013-02-28 15:25:00,
2013-02-28 06:30:00,24.2,19.6,0.00,North,2,5.0,-999.0,82,0.00,,,-99.99,,2013-02-28 15:30:00,
2013-02-28 06:35:00,24.6,19.9,0.00,North,4,4.9,-999.0,81,0.00,,,-99.99,,2013-02-28 15:35:00,
2013-02-28 06:40:00,24.4,19.6,0.00,North,0,5.5,-999.0,81,0.00,,,-99.99,,2013-02-28 15:40:00,
2013-02-28 06:45:00,24.5,19.7,0.00,North,0,4.8,-999.0,81,0.00,,,-99.99,,2013-02-28 15:45:00,
2013-02-28 06:50:00,24.7,20.0,0.00,North,4,4.7,-999.0,82,0.00,,,-99.99,,2013-02-28 15:50:00,
2013-02-28 06:55:00,24.7,19.9,0.00,North,0,4.1,-999.0,81,0.00,,,-99.99,,2013-02-28 15:55:00,
2013-02-28 07:01:00,24.6,19.7,0.00,NNE,12,4.0,-999.0,81,0.00,,,-99.99,,2013-02-28 16:01:00,
2013-02-28 07:06:00,24.5,19.9,0.00,NNE,26,3.6,-999.0,82,0.00,,,-99.99,,2013-02-28 16:06:00,
2013-02-28 07:11:00,24.3,20.4,0.00,ENE,59,4.6,-999.0,84,0.00,,,-99.99,,2013-02-28 16:11:00,
2013-02-28 07:16:00,24.1,20.3,0.00,ENE,71,4.2,-999.0,85,0.00,,,-99.99,,2013-02-28 16:16:00,
2013-02-28 07:21:00,24.0,20.4,0.00,East,84,4.1,-999.0,85,0.00,,,-99.99,,2013-02-28 16:21:00,
2013-02-28 07:26:00,24.2,20.3,0.00,East,93,5.7,-999.0,84,0.00,,,-99.99,,2013-02-28 16:26:00,
2013-02-28 07:31:00,24.1,20.6,0.00,ESE,102,5.9,-999.0,86,0.00,,,-99.99,,2013-02-28 16:31:00,
2013-02-28 07:36:00,24.1,20.6,0.00,East,96,5.0,-999.0,86,0.00,,,-99.99,,2013-02-28 16:36:00,
2013-02-28 07:41:00,23.8,20.6,0.00,ESE,116,4.5,-999.0,87,0.00,,,-99.99,,2013-02-28 16:41:00,
2013-02-28 07:46:00,23.8,20.7,0.00,ESE,123,4.2,-999.0,87,0.00,,,-99.99,,2013-02-28 16:46:00,
2013-02-28 07:51:00,23.8,20.7,0.00,SE,142,4.7,-999.0,87,0.00,,,-99.99,,2013-02-28 16:51:00,
2013-02-28 07:56:00,24.0,21.1,0.00,ESE,121,4.9,-999.0,88,0.00,,,-99.99,,2013-02-28 16:56:00,
2013-02-28 08:01:00,23.9,21.3,0.00,ESE,122,4.5,-999.0,89,0.00,,,-99.99,,2013-02-28 17:01:00,
2013-02-28 08:06:00,24.2,21.7,0.00,ESE,105,4.2,-999.0,90,0.00,,,-99.99,,2013-02-28 17:06:00,
2013-02-28 08:11:00,24.5,22.4,0.00,East,93,3.9,-999.0,91,0.00,,,-99.99,,2013-02-28 17:11:00,
2013-02-28 08:16:00,24.8,22.8,0.00,East,89,3.4,-999.0,91,0.00,,,-99.99,,2013-02-28 17:16:00,
2013-02-28 08:21:00,24.8,23.0,0.00,East,84,3.8,-999.0,92,0.00,,,-99.99,,2013-02-28 17:21:00,
2013-02-28 08:27:00,24.8,23.0,0.00,ESE,106,3.1,-999.0,93,0.00,,,-99.99,,2013-02-28 17:27:00,
2013-02-28 08:32:00,25.1,23.1,0.00,ESE,123,3.0,-999.0,91,0.00,,,-99.99,,2013-02-28 17:32:00,
2013-02-28 08:37:00,25.2,23.1,0.00,ESE,102,4.4,-999.0,91,0.00,,,-99.99,,2013-02-28 17:37:00,
2013-02-28 08:42:00,25.5,23.4,0.00,ESE,106,3.2,-999.0,91,0.00,,,-99.99,,2013-02-28 17:42:00,
2013-02-28 08:47:00,25.7,23.5,0.00,ESE,108,3.2,-999.0,91,0.00,,,-99.99,,2013-02-28 17:47:00,
2013-02-28 08:52:00,25.9,23.7,0.00,ESE,110,3.0,-999.0,91,0.00,,,-99.99,,2013-02-28 17:52:00,
2013-02-28 08:57:00,25.6,23.2,0.00,East,97,4.1,-999.0,90,0.00,,,-99.99,,2013-02-28 17:57:00,
2013-02-28 09:02:00,25.9,23.5,0.00,East,93,3.7,-999.0,90,0.00,,,-99.99,,2013-02-28 18:02:00,
2013-02-28 09:07:00,26.0,23.8,0.00,ESE,107,4.5,-999.0,91,0.00,,,-99.99,,2013-02-28 18:07:00,
2013-02-28 09:12:00,25.9,23.6,0.00,East,100,5.6,-999.0,91,0.00,,,-99.99,,2013-02-28 18:12:00,
2013-02-28 09:17:00,25.9,23.9,0.00,ESE,116,4.5,-999.0,91,0.00,,,-99.99,,2013-02-28 18:17:00,
2013-02-28 09:22:00,26.1,23.9,0.00,East,101,4.9,-999.0,91,0.00,,,-99.99,,2013-02-28 18:22:00,
2013-02-28 09:27:00,25.9,23.8,0.00,ESE,105,4.5,-999.0,91,0.00,,,-99.99,,2013-02-28 18:27:00,
2013-02-28 09:32:00,26.1,24.0,0.00,East,91,4.2,-999.0,91,0.00,,,-99.99,,2013-02-28 18:32:00,
2013-02-28 09:37:00,26.2,24.1,0.00,ESE,104,2.7,-999.0,92,0.00,,,-99.99,,2013-02-28 18:37:00,
2013-02-28 09:42:00,26.5,24.6,0.00,ESE,113,0.9,-999.0,92,0.00,,,-99.99,,2013-02-28 18:42:00,
2013-02-28 09:47:00,26.5,24.3,0.00,ESE,113,2.1,-999.0,91,0.00,,,-99.99,,2013-02-28 18:47:00,
2013-02-28 09:52:00,26.7,24.4,0.00,East,100,1.1,-999.0,91,0.00,,,-99.99,,2013-02-28 18:52:00,
2013-02-28 09:57:00,27.2,25.2,0.00,East,99,0.0,-999.0,91,0.00,,,-99.99,,2013-02-28 18:57:00,
2013-02-28 10:02:00,27.3,25.1,0.00,SE,124,0.9,-999.0,91,0.00,,,-99.99,,2013-02-28 19:02:00,
2013-02-28 10:07:00,27.1,24.9,0.00,East,92,0.4,-999.0,91,0.00,,,-99.99,,2013-02-28 19:07:00,
2013-02-28 10:12:00,27.2,24.7,0.00,ENE,70,1.0,-999.0,90,0.00,,,-99.99,,2013-02-28 19:12:00,
2013-02-28 10:17:00,27.5,25.0,0.00,ENE,70,0.4,-999.0,90,0.00,,,-99.99,,2013-02-28 19:17:00,
2013-02-28 10:22:00,27.8,25.2,0.00,East,93,0.5,-999.0,89,0.00,,,-99.99,,2013-02-28 19:22:00,
2013-02-28 10:27:00,28.1,25.6,0.00,ESE,105,0.0,-999.0,90,0.00,,,-99.99,,2013-02-28 19:27:00,
2013-02-28 10:32:00,29.0,27.1,0.00,ESE,105,0.0,-999.0,92,0.00,,,-99.99,,2013-02-28 19:32:00,
2013-02-28 10:37:00,28.3,25.5,0.00,ESE,119,1.0,-999.0,89,0.00,,,-99.99,,2013-02-28 19:37:00,
2013-02-28 10:42:00,28.9,26.6,0.00,South,190,1.5,-999.0,91,0.00,,,-99.99,,2013-02-28 19:42:00,
2013-02-28 10:47:00,28.2,25.6,0.00,SSE,150,3.0,-999.0,89,0.00,,,-99.99,,2013-02-28 19:47:00,
2013-02-28 10:52:00,28.1,25.2,0.00,SE,135,2.4,-999.0,89,0.00,,,-99.99,,2013-02-28 19:52:00,
2013-02-28 10:57:00,27.6,24.7,0.00,SE,135,2.8,-999.0,89,0.00,,,-99.99,,2013-02-28 19:57:00,
2013-02-28 11:02:00,27.3,24.4,0.00,SE,132,3.3,-999.0,88,0.00,,,-99.99,,2013-02-28 20:02:00,
2013-02-28 11:08:00,27.7,25.1,0.00,SE,141,3.4,-999.0,89,0.00,,,-99.99,,2013-02-28 20:08:00,
2013-02-28 11:13:00,27.5,24.6,0.00,SE,127,2.9,-999.0,88,0.00,,,-99.99,,2013-02-28 20:13:00,
2013-02-28 11:18:00,27.6,24.9,0.00,ESE,102,2.2,-999.0,89,0.00,,,-99.99,,2013-02-28 20:18:00,
2013-02-28 11:23:00,27.9,25.1,0.00,East,100,1.7,-999.0,89,0.00,,,-99.99,,2013-02-28 20:23:00,
2013-02-28 11:28:00,27.5,24.4,0.00,East,94,3.9,-999.0,87,0.00,,,-99.99,,2013-02-28 20:28:00,
2013-02-28 11:34:00,26.9,23.9,0.00,East,83,4.4,-999.0,88,0.00,,,-99.99,,2013-02-28 20:34:00,
2013-02-28 11:39:00,26.8,23.9,0.00,ENE,78,7.6,-999.0,88,0.00,,,-99.99,,2013-02-28 20:39:00,
2013-02-28 11:44:00,26.8,23.9,0.00,ENE,74,8.9,-999.0,88,0.00,,,-99.99,,2013-02-28 20:44:00,
2013-02-28 11:49:00,26.4,23.8,0.00,ENE,64,9.2,-999.0,89,0.00,,,-99.99,,2013-02-28 20:49:00,
2013-02-28 11:54:00,26.5,23.8,0.00,East,81,8.7,-999.0,89,0.00,,,-99.99,,2013-02-28 20:54:00,
2013-02-28 12:00:00,26.5,23.8,0.00,East,79,9.2,-999.0,89,0.00,,,-99.99,,2013-02-28 21:00:00,
2013-02-28 12:05:00,26.7,23.8,0.00,East,83,8.2,-999.0,88,0.00,,,-99.99,,2013-02-28 21:05:00,
2013-02-28 12:10:00,26.7,24.0,0.00,East,92,8.1,-999.0,89,0.00,,,-99.99,,2013-02-28 21:10:00,
2013-02-28 12:15:00,26.8,24.0,0.00,ENE,70,9.2,-999.0,89,0.00,,,-99.99,,2013-02-28 21:15:00,
2013-02-28 12:20:00,26.7,23.7,0.00,ENE,71,9.2,-999.0,88,0.00,,,-99.99,,2013-02-28 21:20:00,
2013-02-28 12:26:00,26.7,23.8,0.00,East,81,7.8,-999.0,88,0.00,,,-99.99,,2013-02-28 21:26:00,
2013-02-28 12:31:00,26.9,23.4,0.00,East,80,10.5,-999.0,86,0.00,,,-99.99,,2013-02-28 21:31:00,
2013-02-28 12:36:00,26.9,23.4,0.00,East,97,10.4,-999.0,86,0.00,,,-99.99,,2013-02-28 21:36:00,
2013-02-28 12:41:00,27.0,23.5,0.00,ENE,72,9.1,-999.0,86,0.00,,,-99.99,,2013-02-28 21:41:00,
2013-02-28 12:46:00,26.9,23.0,0.00,ENE,76,13.5,-999.0,85,0.00,,,-99.99,,2013-02-28 21:46:00,
2013-02-28 12:52:00,27.0,23.4,0.00,ENE,71,14.2,-999.0,86,0.00,,,-99.99,,2013-02-28 21:52:00,
2013-02-28 12:57:00,27.0,23.6,0.00,East,79,15.8,-999.0,86,0.00,,,-99.99,,2013-02-28 21:57:00,
2013-02-28 13:02:00,27.0,23.9,0.00,East,79,14.4,-999.0,87,0.00,,,-99.99,,2013-02-28 22:02:00,
2013-02-28 13:07:00,26.9,23.5,0.00,East,90,13.5,-999.0,87,0.00,,,-99.99,,2013-02-28 22:07:00,
2013-02-28 13:12:00,26.8,23.4,0.00,East,88,12.4,-999.0,86,0.00,,,-99.99,,2013-02-28 22:12:00,
2013-02-28 13:18:00,26.9,23.2,0.00,East,87,16.0,-999.0,85,0.00,,,-99.99,,2013-02-28 22:18:00,
2013-02-28 13:23:00,27.0,23.1,0.00,East,82,12.6,-999.0,85,0.00,,,-99.99,,2013-02-28 22:23:00,
2013-02-28 13:28:00,27.1,23.4,0.00,ESE,107,10.4,-999.0,86,0.00,,,-99.99,,2013-02-28 22:28:00,
2013-02-28 13:33:00,26.9,23.4,0.00,East,94,12.3,-999.0,86,0.00,,,-99.99,,2013-02-28 22:33:00,
2013-02-28 13:38:00,27.1,23.6,0.00,ENE,78,12.9,-999.0,86,0.00,,,-99.99,,2013-02-28 22:38:00,
2013-02-28 13:44:00,27.1,23.0,0.00,East,100,13.8,-999.0,84,0.00,,,-99.99,,2013-02-28 22:44:00,
2013-02-28 13:49:00,27.2,23.3,0.00,East,91,9.3,-999.0,84,0.00,,,-99.99,,2013-02-28 22:49:00,
2013-02-28 13:54:00,27.1,23.2,0.00,ENE,77,12.9,-999.0,84,0.00,,,-99.99,,2013-02-28 22:54:00,
2013-02-28 13:59:00,27.1,22.8,0.00,East,88,13.2,-999.0,83,0.00,,,-99.99,,2013-02-28 22:59:00,
2013-02-28 14:04:00,27.1,22.9,0.00,East,81,11.8,-999.0,83,0.00,,,-99.99,,2013-02-28 23:04:00,
2013-02-28 14:10:00,27.0,22.5,0.00,ENE,75,15.5,-999.0,82,0.00,,,-99.99,,2013-02-28 23:10:00,
2013-02-28 14:15:00,27.1,22.8,0.00,East,95,14.5,-999.0,83,0.00,,,-99.99,,2013-02-28 23:15:00,
2013-02-28 14:20:00,27.1,22.7,0.00,East,100,13.6,-999.0,83,0.00,,,-99.99,,2013-02-28 23:20:00,
2013-02-28 14:25:00,27.1,22.9,0.00,East,94,11.9,-999.0,83,0.00,,,-99.99,,2013-02-28 23:25:00,
2013-02-28 14:30:00,27.5,23.4,0.00,ESE,105,8.9,-999.0,84,0.00,,,-99.99,,2013-02-28 23:30:00,
2013-02-28 14:36:00,27.2,22.6,0.00,ESE,103,12.4,-999.0,82,0.00,,,-99.99,,2013-02-28 23:36:00,
2013-02-28 14:41:00,27.4,22.2,0.00,East,92,13.4,-999.0,80,0.00,,,-99.99,,2013-02-28 23:41:00,
2013-02-28 14:46:00,27.6,23.0,0.00,East,83,13.3,-999.0,82,0.00,,,-99.99,,2013-02-28 23:46:00,
2013-02-28 14:51:00,27.5,22.8,0.00,East,82,15.3,-999.0,82,0.00,,,-99.99,,2013-02-28 23:51:00,
2013-02-28 14:56:00,27.3,22.7,0.00,East,88,17.1,-999.0,82,0.00,,,-99.99,,2013-02-28 23:56:00,
2013-02-28 15:02:00,27.5,22.9,0.00,East,90,15.8,-999.0,82,0.00,,,-99.99,,2013-03-01 00:02:00,
2013-02-28 15:07:00,27.3,22.9,0.00,East,86,16.2,-999.0,82,0.00,,,-99.99,,2013-03-01 00:07:00,
2013-02-28 15:12:00,27.2,22.6,0.00,East,94,13.2,-999.0,82,0.00,,,-99.99,,2013-03-01 00:12:00,
2013-02-28 15:17:00,27.4,22.7,0.00,East,89,11.7,-999.0,82,0.00,,,-99.99,,2013-03-01 00:17:00,
2013-02-28 15:23:00,27.5,22.6,0.00,East,88,14.8,-999.0,81,0.00,,,-99.99,,2013-03-01 00:23:00,
2013-02-28 15:28:00,27.3,22.6,0.00,ESE,103,16.5,-999.0,82,0.00,,,-99.99,,2013-03-01 00:28:00,
2013-02-28 15:33:00,27.3,22.5,0.00,East,94,14.0,-999.0,81,0.00,,,-99.99,,2013-03-01 00:33:00,
2013-02-28 15:38:00,27.5,22.7,0.00,East,89,17.0,-999.0,82,0.00,,,-99.99,,2013-03-01 00:38:00,
2013-02-28 15:43:00,27.4,22.5,0.00,East,98,17.5,-999.0,81,0.00,,,-99.99,,2013-03-01 00:43:00,
2013-02-28 15:48:00,27.4,22.6,0.00,East,89,19.6,-999.0,81,0.00,,,-99.99,,2013-03-01 00:48:00,
2013-02-28 15:54:00,27.5,22.7,0.00,East,83,18.3,-999.0,81,0.00,,,-99.99,,2013-03-01 00:54:00,
2013-02-28 15:59:00,27.4,22.7,0.00,East,89,16.4,-999.0,82,0.00,,,-99.99,,2013-03-01 00:59:00,
2013-02-28 16:04:00,27.2,22.6,0.00,East,82,20.9,-999.0,82,0.00,,,-99.99,,2013-03-01 01:04:00,
2013-02-28 16:09:00,27.3,22.6,0.00,East,84,17.6,-999.0,82,0.00,,,-99.99,,2013-03-01 01:09:00,
2013-02-28 16:14:00,27.4,22.3,0.00,ENE,75,21.3,-999.0,81,0.00,,,-99.99,,2013-03-01 01:14:00,
2013-02-28 16:20:00,27.3,22.8,0.00,East,91,14.6,-999.0,82,0.00,,,-99.99,,2013-03-01 01:20:00,
2013-02-28 16:25:00,27.3,22.7,0.00,East,83,19.4,-999.0,82,0.00,,,-99.99,,2013-03-01 01:25:00,
2013-02-28 16:30:00,27.2,22.7,0.00,East,81,17.5,-999.0,82,0.00,,,-99.99,,2013-03-01 01:30:00,
2013-02-28 16:35:00,27.1,22.6,0.00,East,91,20.0,-999.0,82,0.00,,,-99.99,,2013-03-01 01:35:00,
2013-02-28 16:40:00,27.0,22.5,0.00,East,89,16.0,-999.0,82,0.00,,,-99.99,,2013-03-01 01:40:00,
2013-02-28 16:46:00,27.4,22.0,0.00,East,88,19.2,-999.0,80,0.00,,,-99.99,,2013-03-01 01:46:00,
2013-02-28 16:51:00,27.2,22.7,0.00,East,91,16.0,-999.0,82,0.00,,,-99.99,,2013-03-01 01:51:00,
2013-02-28 16:56:00,27.4,22.5,0.00,East,88,14.6,-999.0,81,0.00,,,-99.99,,2013-03-01 01:56:00,
2013-02-28 17:01:00,26.8,22.5,0.00,East,85,17.3,-999.0,83,0.00,,,-99.99,,2013-03-01 02:01:00,
2013-02-28 17:06:00,27.2,22.4,0.00,East,85,21.7,-999.0,81,0.00,,,-99.99,,2013-03-01 02:06:00,
2013-02-28 17:12:00,27.2,22.4,0.00,East,86,14.7,-999.0,82,0.00,,,-99.99,,2013-03-01 02:12:00,
2013-02-28 17:17:00,27.3,22.5,0.00,East,94,17.8,-999.0,81,0.00,,,-99.99,,2013-03-01 02:17:00,
2013-02-28 17:22:00,26.9,22.2,0.00,East,82,15.8,-999.0,82,0.00,,,-99.99,,2013-03-01 02:22:00,
2013-02-28 17:27:00,26.6,22.2,0.00,East,100,14.7,-999.0,83,0.00,,,-99.99,,2013-03-01 02:27:00,
2013-02-28 17:32:00,26.8,22.4,0.00,ENE,78,14.0,-999.0,83,0.00,,,-99.99,,2013-03-01 02:32:00,
2013-02-28 17:38:00,27.0,22.1,0.00,East,92,16.0,-999.0,81,0.00,,,-99.99,,2013-03-01 02:38:00,
2013-02-28 17:43:00,27.5,21.9,0.00,East,89,13.0,-999.0,79,0.00,,,-99.99,,2013-03-01 02:43:00,
2013-02-28 17:48:00,27.0,21.9,0.00,East,79,20.6,-999.0,80,0.00,,,-99.99,,2013-03-01 02:48:00,
2013-02-28 17:53:00,26.9,22.1,0.00,East,88,16.0,-999.0,81,0.00,,,-99.99,,2013-03-01 02:53:00,
2013-02-28 17:58:00,26.9,22.1,0.00,East,87,16.4,-999.0,82,0.00,,,-99.99,,2013-03-01 02:58:00,
2013-02-28 18:04:00,27.0,21.6,0.00,ESE,109,14.6,-999.0,79,0.00,,,-99.99,,2013-03-01 03:04:00,
2013-02-28 18:09:00,26.9,21.7,0.00,ESE,108,9.9,-999.0,80,0.00,,,-99.99,,2013-03-01 03:09:00,
2013-02-28 18:14:00,27.1,21.8,0.00,East,88,10.0,-999.0,79,0.00,,,-99.99,,2013-03-01 03:14:00,
2013-02-28 18:19:00,26.9,21.9,0.00,East,87,13.8,-999.0,81,0.00,,,-99.99,,2013-03-01 03:19:00,
2013-02-28 18:24:00,27.0,21.4,0.00,East,87,13.9,-999.0,79,0.00,,,-99.99,,2013-03-01 03:24:00,
2013-02-28 18:30:00,27.0,20.9,0.00,East,97,20.5,-999.0,77,0.00,,,-99.99,,2013-03-01 03:30:00,
2013-02-28 18:35:00,27.2,21.0,0.00,ESE,105,20.5,-999.0,77,0.00,,,-99.99,,2013-03-01 03:35:00,
2013-02-28 18:40:00,26.9,20.7,0.00,East,85,26.0,-999.0,77,0.00,,,-99.99,,2013-03-01 03:40:00,
2013-02-28 18:45:00,26.9,20.6,0.00,ESE,106,20.1,-999.0,76,0.00,,,-99.99,,2013-03-01 03:45:00,
2013-02-28 18:50:00,27.0,20.7,0.00,East,97,22.8,-999.0,76,0.00,,,-99.99,,2013-03-01 03:50:00,
2013-02-28 18:56:00,26.9,20.7,0.00,East,100,20.7,-999.0,77,0.00,,,-99.99,,2013-03-01 03:56:00,
2013-02-28 19:01:00,27.0,20.8,0.00,East,99,18.9,-999.0,77,0.00,,,-99.99,,2013-03-01 04:01:00,
2013-02-28 19:06:00,27.0,20.8,0.00,East,90,26.3,-999.0,76,0.00,,,-99.99,,2013-03-01 04:06:00,
2013-02-28 19:11:00,26.9,20.8,0.00,ESE,106,19.9,-999.0,77,0.00,,,-99.99,,2013-03-01 04:11:00,
2013-02-28 19:16:00,27.1,20.9,0.00,East,94,18.8,-999.0,76,0.00,,,-99.99,,2013-03-01 04:16:00,
2013-02-28 19:22:00,26.9,21.2,0.00,East,90,18.5,-999.0,78,0.00,,,-99.99,,2013-03-01 04:22:00,
2013-02-28 19:27:00,26.7,20.9,0.00,East,91,17.5,-999.0,78,0.00,,,-99.99,,2013-03-01 04:27:00,
2013-02-28 19:32:00,27.1,20.7,0.00,East,89,21.7,-999.0,76,0.00,,,-99.99,,2013-03-01 04:32:00,
2013-02-28 19:37:00,26.7,20.9,0.00,East,82,21.3,-999.0,78,0.00,,,-99.99,,2013-03-01 04:37:00,
2013-02-28 19:42:00,26.9,21.2,0.00,East,85,19.2,-999.0,78,0.00,,,-99.99,,2013-03-01 04:42:00,
2013-02-28 19:47:00,26.7,21.3,0.00,East,81,21.2,-999.0,79,0.00,,,-99.99,,2013-03-01 04:47:00,
2013-02-28 19:52:00,26.5,21.6,0.00,East,83,16.4,-999.0,81,0.00,,,-99.99,,2013-03-01 04:52:00,
2013-02-28 19:57:00,26.7,21.7,0.00,East,91,19.7,-999.0,81,0.00,,,-99.99,,2013-03-01 04:57:00,
2013-02-28 20:00:00,27.0,20.6,0.00,East,96,19.9,-999.0,76,0.00,,,-99.99,,2013-03-01 05:00:00,
2013-02-28 20:01:00,27.1,21.4,0.00,East,86,18.1,-999.0,78,0.00,,,-99.99,,2013-03-01 05:01:00,
2013-02-28 20:03:00,26.6,21.7,0.00,East,89,22.1,-999.0,81,0.00,,,-99.99,,2013-03-01 05:03:00,
2013-02-28 20:04:00,26.6,21.8,0.00,East,88,13.9,-999.0,81,0.00,,,-99.99,,2013-03-01 05:04:00,
2013-02-28 20:06:00,26.5,21.6,0.00,East,90,13.6,-999.0,81,0.00,,,-99.99,,2013-03-01 05:06:00,
2013-02-28 20:11:00,26.7,21.9,0.00,East,88,18.5,-999.0,81,0.00,,,-99.99,,2013-03-01 05:11:00,
2013-02-28 20:16:00,26.7,21.7,0.00,ENE,65,25.1,-999.0,81,0.00,,,-99.99,,2013-03-01 05:16:00,
2013-02-28 20:21:00,26.9,21.8,0.00,East,82,22.4,-999.0,81,0.00,,,-99.99,,2013-03-01 05:21:00,
2013-02-28 20:26:00,26.4,22.1,0.00,East,86,18.1,-999.0,83,0.00,,,-99.99,,2013-03-01 05:26:00,
2013-02-28 20:31:00,26.5,22.1,0.00,ENE,78,20.4,-999.0,83,0.00,,,-99.99,,2013-03-01 05:31:00,
2013-02-28 20:36:00,26.2,21.7,0.00,East,89,22.3,-999.0,82,0.00,,,-99.99,,2013-03-01 05:36:00,
2013-02-28 20:41:00,26.4,22.1,0.00,East,86,19.7,-999.0,83,0.00,,,-99.99,,2013-03-01 05:41:00,
2013-02-28 20:46:00,26.4,22.1,0.00,East,83,19.5,-999.0,83,0.00,,,-99.99,,2013-03-01 05:46:00,
2013-02-28 20:51:00,26.2,22.0,0.00,East,80,20.0,-999.0,84,0.00,,,-99.99,,2013-03-01 05:51:00,
2013-02-28 20:56:00,26.2,22.2,0.00,East,85,20.4,-999.0,84,0.00,,,-99.99,,2013-03-01 05:56:00,
2013-02-28 21:01:00,26.2,22.2,0.00,ENE,64,23.0,-999.0,84,0.00,,,-99.99,,2013-03-01 06:01:00,
2013-02-28 21:06:00,26.1,22.0,0.00,ENE,72,21.6,-999.0,84,0.00,,,-99.99,,2013-03-01 06:06:00,
2013-02-28 21:11:00,26.2,22.1,0.00,ENE,67,20.4,-999.0,84,0.00,,,-99.99,,2013-03-01 06:11:00,
2013-02-28 21:16:00,26.4,22.2,0.00,East,91,19.3,-999.0,84,0.00,,,-99.99,,2013-03-01 06:16:00,
2013-02-28 21:21:00,26.3,22.5,0.00,ENE,72,19.9,-999.0,85,0.00,,,-99.99,,2013-03-01 06:21:00,
2013-02-28 21:26:00,26.7,22.4,0.00,ENE,71,19.7,-999.0,83,0.00,,,-99.99,,2013-03-01 06:26:00,
2013-02-28 21:31:00,26.4,22.4,0.00,ENE,64,19.7,-999.0,84,0.00,,,-99.99,,2013-03-01 06:31:00,
2013-02-28 21:36:00,26.6,22.3,0.00,ENE,73,19.2,-999.0,83,0.00,,,-99.99,,2013-03-01 06:36:00,
2013-02-28 21:41:00,26.4,22.2,0.00,ENE,74,17.4,-999.0,83,0.00,,,-99.99,,2013-03-01 06:41:00,
2013-02-28 21:46:00,26.2,22.1,0.00,East,81,20.8,-999.0,83,0.00,,,-99.99,,2013-03-01 06:46:00,
2013-02-28 21:51:00,26.5,22.0,0.00,East,87,15.0,-999.0,82,0.00,,,-99.99,,2013-03-01 06:51:00,
2013-02-28 21:56:00,26.5,22.0,0.00,East,79,23.3,-999.0,82,0.00,,,-99.99,,2013-03-01 06:56:00,
2013-02-28 22:01:00,26.5,21.9,0.00,ENE,72,19.3,-999.0,82,0.00,,,-99.99,,2013-03-01 07:01:00,
2013-02-28 22:06:00,26.5,21.8,0.00,ENE,78,18.3,-999.0,82,0.00,,,-99.99,,2013-03-01 07:06:00,
2013-02-28 22:11:00,26.7,22.0,0.00,East,92,14.3,-999.0,82,0.00,,,-99.99,,2013-03-01 07:11:00,
2013-02-28 22:16:00,26.4,21.9,0.00,ENE,72,15.2,-999.0,83,0.00,,,-99.99,,2013-03-01 07:16:00,
2013-02-28 22:21:00,26.7,22.0,0.00,East,85,21.8,-999.0,82,0.00,,,-99.99,,2013-03-01 07:21:00,
2013-02-28 22:26:00,26.4,22.0,0.00,ENE,71,16.7,-999.0,83,0.00,,,-99.99,,2013-03-01 07:26:00,
2013-02-28 22:31:00,26.2,21.9,0.00,ENE,74,23.3,-999.0,83,0.00,,,-99.99,,2013-03-01 07:31:00,
2013-02-28 22:36:00,26.2,22.0,0.00,East,81,18.9,-999.0,84,0.00,,,-99.99,,2013-03-01 07:36:00,
2013-02-28 22:41:00,26.1,22.0,0.00,ENE,69,17.4,-999.0,84,0.00,,,-99.99,,2013-03-01 07:41:00,
2013-02-28 22:46:00,26.0,21.9,0.00,ENE,70,23.9,-999.0,84,0.00,,,-99.99,,2013-03-01 07:46:00,
2013-02-28 22:51:00,26.1,21.8,0.00,East,81,18.9,-999.0,83,0.00,,,-99.99,,2013-03-01 07:51:00,
2013-02-28 22:57:00,26.4,21.9,0.00,East,89,10.6,-999.0,82,0.00,,,-99.99,,2013-03-01 07:57:00,
2013-02-28 23:02:00,26.3,21.7,0.00,ENE,76,20.5,-999.0,82,0.00,,,-99.99,,2013-03-01 08:02:00,
2013-02-28 23:07:00,26.3,21.7,0.00,ENE,74,18.5,-999.0,82,0.00,,,-99.99,,2013-03-01 08:07:00,
2013-02-28 23:13:00,26.1,21.5,0.00,ENE,70,21.3,-999.0,82,0.00,,,-99.99,,2013-03-01 08:13:00,
2013-02-28 23:18:00,26.3,21.2,0.00,ENE,68,18.5,-999.0,80,0.00,,,-99.99,,2013-03-01 08:18:00,
2013-02-28 23:23:00,26.5,21.6,0.00,ENE,69,15.8,-999.0,81,0.00,,,-99.99,,2013-03-01 08:23:00,
2013-02-28 23:29:00,26.9,21.7,0.00,ENE,69,19.6,-999.0,80,0.00,,,-99.99,,2013-03-01 08:29:00,
2013-02-28 23:33:00,26.8,21.7,0.00,ENE,75,13.9,-999.0,80,0.00,,,-99.99,,2013-03-01 08:33:00,
2013-02-28 23:39:00,26.5,21.4,0.00,East,79,16.3,-999.0,80,0.00,,,-99.99,,2013-03-01 08:39:00,
2013-02-28 23:45:00,27.1,21.3,0.00,ENE,76,13.7,-999.0,78,0.00,,,-99.99,,2013-03-01 08:45:00,
2013-02-28 23:50:00,27.9,21.3,0.00,ENE,73,12.7,-999.0,75,0.00,,,-99.99,,2013-03-01 08:50:00,
2013-02-28 23:55:00,27.0,21.4,0.00,ENE,68,16.2,-999.0,79,0.00,,,-99.99,,2013-03-01 08:55:00,